sensor_id;sensor_type;location;lat;lon;timestamp;pressure;altitude;pressure_sealevel;temperature;humidity
74633;BME280;63139;52.018;8.552;2024-01-15T00:01:03;98891.50;;;2.59;100.00
74633;BME280;63139;52.018;8.552;2024-01-15T00:03:35;98893.63;;;2.63;100.00
74633;BME280;63139;52.018;8.552;2024-01-15T00:06:04;98883.66;;;2.67;100.00
74633;BME280;63139;52.018;8.552;2024-01-15T00:08:33;98878.63;;;2.65;100.00
74633;BME280;63139;52.018;8.552;2024-01-15T00:11:01;98877.81;;;2.65;100.00
74633;BME280;63139;52.018;8.552;2024-01-15T00:13:28;98882.06;;;2.66;100.00
74633;BME280;63139;52.018;8.552;2024-01-15T00:15:56;98877.31;;;2.69;100.00
74633;BME280;63139;52.018;8.552;2024-01-15T00:18:24;98875.38;;;2.71;100.00
74633;BME280;63139;52.018;8.552;2024-01-15T00:20:54;98860.16;;;2.67;100.00
74633;BME280;63139;52.018;8.552;2024-01-15T00:23:22;98870.97;;;2.72;100.00
74633;BME280;63139;52.018;8.552;2024-01-15T00:25:50;98874.72;;;2.78;100.00
74633;BME280;63139;52.018;8.552;2024-01-15T00:28:18;98863.47;;;2.77;100.00
74633;BME280;63139;52.018;8.552;2024-01-15T00:30:46;98879.97;;;2.78;100.00
74633;BME280;63139;52.018;8.552;2024-01-15T00:33:14;98877.66;;;2.74;100.00
74633;BME280;63139;52.018;8.552;2024-01-15T00:35:42;98875.22;;;2.73;100.00
74633;BME280;63139;52.018;8.552;2024-01-15T00:38:12;98872.75;;;2.71;100.00
74633;BME280;63139;52.018;8.552;2024-01-15T00:40:40;98875.38;;;2.71;100.00
74633;BME280;63139;52.018;8.552;2024-01-15T00:43:08;98873.91;;;2.77;100.00
74633;BME280;63139;52.018;8.552;2024-01-15T00:45:36;98870.03;;;2.81;100.00
74633;BME280;63139;52.018;8.552;2024-01-15T00:48:05;98864.81;;;2.81;100.00
74633;BME280;63139;52.018;8.552;2024-01-15T00:50:33;98866.94;;;2.86;100.00
74633;BME280;63139;52.018;8.552;2024-01-15T00:53:02;98870.19;;;2.88;100.00
74633;BME280;63139;52.018;8.552;2024-01-15T00:55:31;98863.81;;;2.90;100.00
74633;BME280;63139;52.018;8.552;2024-01-15T00:57:59;98873.31;;;2.91;100.00
74633;BME280;63139;52.018;8.552;2024-01-15T01:00:27;98870.53;;;2.93;100.00
74633;BME280;63139;52.018;8.552;2024-01-15T01:02:55;98871.66;;;2.90;100.00
74633;BME280;63139;52.018;8.552;2024-01-15T01:05:23;98864.78;;;2.89;100.00
74633;BME280;63139;52.018;8.552;2024-01-15T01:07:52;98857.47;;;2.93;100.00
74633;BME280;63139;52.018;8.552;2024-01-15T01:10:20;98867.63;;;2.96;100.00
74633;BME280;63139;52.018;8.552;2024-01-15T01:12:50;98861.06;;;2.92;100.00
74633;BME280;63139;52.018;8.552;2024-01-15T01:15:18;98853.38;;;2.90;100.00
74633;BME280;63139;52.018;8.552;2024-01-15T01:17:47;98847.00;;;2.93;100.00
74633;BME280;63139;52.018;8.552;2024-01-15T01:20:15;98855.81;;;2.92;100.00
74633;BME280;63139;52.018;8.552;2024-01-15T01:22:45;98863.00;;;2.90;100.00
74633;BME280;63139;52.018;8.552;2024-01-15T01:25:13;98865.13;;;2.86;100.00
74633;BME280;63139;52.018;8.552;2024-01-15T01:27:41;98865.63;;;2.90;100.00
74633;BME280;63139;52.018;8.552;2024-01-15T01:30:10;98871.19;;;2.87;100.00
74633;BME280;63139;52.018;8.552;2024-01-15T01:32:39;98870.03;;;2.89;100.00
74633;BME280;63139;52.018;8.552;2024-01-15T01:35:07;98866.94;;;2.94;100.00
74633;BME280;63139;52.018;8.552;2024-01-15T01:37:35;98856.81;;;2.91;100.00
74633;BME280;63139;52.018;8.552;2024-01-15T01:40:03;98856.66;;;2.92;100.00
74633;BME280;63139;52.018;8.552;2024-01-15T01:42:32;98861.06;;;2.92;100.00
74633;BME280;63139;52.018;8.552;2024-01-15T01:45:00;98865.63;;;2.98;100.00
74633;BME280;63139;52.018;8.552;2024-01-15T01:47:29;98855.84;;;3.00;100.00
74633;BME280;63139;52.018;8.552;2024-01-15T01:49:57;98844.41;;;2.93;100.00
74633;BME280;63139;52.018;8.552;2024-01-15T01:52:25;98838.03;;;2.95;100.00
74633;BME280;63139;52.018;8.552;2024-01-15T01:54:53;98836.88;;;2.90;100.00
74633;BME280;63139;52.018;8.552;2024-01-15T01:57:22;98831.13;;;2.78;100.00
74633;BME280;63139;52.018;8.552;2024-01-15T01:59:50;98817.25;;;2.78;100.00
74633;BME280;63139;52.018;8.552;2024-01-15T02:02:19;98832.09;;;2.69;100.00
74633;BME280;63139;52.018;8.552;2024-01-15T02:04:50;98822.94;;;2.65;100.00
74633;BME280;63139;52.018;8.552;2024-01-15T02:07:19;98821.31;;;2.64;100.00
74633;BME280;63139;52.018;8.552;2024-01-15T02:09:47;98821.59;;;2.61;100.00
74633;BME280;63139;52.018;8.552;2024-01-15T02:12:17;98820.63;;;2.62;100.00
74633;BME280;63139;52.018;8.552;2024-01-15T02:14:45;98818.03;;;2.62;100.00
74633;BME280;63139;52.018;8.552;2024-01-15T02:17:13;98827.34;;;2.64;100.00
74633;BME280;63139;52.018;8.552;2024-01-15T02:19:41;98821.94;;;2.58;100.00
74633;BME280;63139;52.018;8.552;2024-01-15T02:22:10;98823.72;;;2.57;100.00
74633;BME280;63139;52.018;8.552;2024-01-15T02:24:39;98823.56;;;2.51;100.00
74633;BME280;63139;52.018;8.552;2024-01-15T02:27:07;98824.69;;;2.48;100.00
74633;BME280;63139;52.018;8.552;2024-01-15T02:29:36;98824.78;;;2.39;100.00
74633;BME280;63139;52.018;8.552;2024-01-15T02:32:04;98834.13;;;2.41;100.00
74633;BME280;63139;52.018;8.552;2024-01-15T02:34:34;98830.00;;;2.39;100.00
74633;BME280;63139;52.018;8.552;2024-01-15T02:37:02;98832.19;;;2.43;100.00
74633;BME280;63139;52.018;8.552;2024-01-15T02:39:30;98827.13;;;2.50;100.00
74633;BME280;63139;52.018;8.552;2024-01-15T02:42:00;98824.03;;;2.54;100.00
74633;BME280;63139;52.018;8.552;2024-01-15T02:44:27;98826.50;;;2.56;100.00
74633;BME280;63139;52.018;8.552;2024-01-15T02:46:56;98821.59;;;2.61;100.00
74633;BME280;63139;52.018;8.552;2024-01-15T02:49:24;98820.34;;;2.65;100.00
74633;BME280;63139;52.018;8.552;2024-01-15T02:51:52;98824.09;;;2.70;100.00
74633;BME280;63139;52.018;8.552;2024-01-15T02:54:20;98837.50;;;2.76;100.00
74633;BME280;63139;52.018;8.552;2024-01-15T02:56:49;98822.31;;;2.79;100.00
74633;BME280;63139;52.018;8.552;2024-01-15T02:59:18;98817.91;;;2.80;100.00
74633;BME280;63139;52.018;8.552;2024-01-15T03:01:46;98828.84;;;2.83;100.00
74633;BME280;63139;52.018;8.552;2024-01-15T03:04:14;98822.16;;;2.81;100.00
74633;BME280;63139;52.018;8.552;2024-01-15T03:06:42;98825.41;;;2.83;100.00
74633;BME280;63139;52.018;8.552;2024-01-15T03:09:10;98826.25;;;2.83;100.00
74633;BME280;63139;52.018;8.552;2024-01-15T03:11:39;98830.19;;;2.87;100.00
74633;BME280;63139;52.018;8.552;2024-01-15T03:14:07;98826.09;;;2.85;100.00
74633;BME280;63139;52.018;8.552;2024-01-15T03:16:37;98826.25;;;2.91;100.00
74633;BME280;63139;52.018;8.552;2024-01-15T03:19:05;98830.66;;;2.91;100.00
74633;BME280;63139;52.018;8.552;2024-01-15T03:21:33;98815.34;;;2.96;100.00
74633;BME280;63139;52.018;8.552;2024-01-15T03:24:00;98818.59;;;2.98;100.00
74633;BME280;63139;52.018;8.552;2024-01-15T03:26:28;98823.19;;;2.96;100.00
74633;BME280;63139;52.018;8.552;2024-01-15T03:28:56;98827.59;;;2.95;100.00
74633;BME280;63139;52.018;8.552;2024-01-15T03:31:24;98813.72;;;2.95;100.00
74633;BME280;63139;52.018;8.552;2024-01-15T03:33:53;98819.56;;;2.97;100.00
74633;BME280;63139;52.018;8.552;2024-01-15T03:36:21;98816.47;;;2.93;100.00
74633;BME280;63139;52.018;8.552;2024-01-15T03:38:50;98807.66;;;2.94;100.00
74633;BME280;63139;52.018;8.552;2024-01-15T03:41:18;98806.66;;;2.87;100.00
74633;BME280;63139;52.018;8.552;2024-01-15T03:43:45;98805.84;;;2.87;100.00
74633;BME280;63139;52.018;8.552;2024-01-15T03:46:13;98802.56;;;2.85;100.00
74633;BME280;63139;52.018;8.552;2024-01-15T03:48:42;98806.00;;;2.85;100.00
74633;BME280;63139;52.018;8.552;2024-01-15T03:51:11;98816.44;;;2.85;100.00
74633;BME280;63139;52.018;8.552;2024-01-15T03:53:39;98815.47;;;2.78;100.00
74633;BME280;63139;52.018;8.552;2024-01-15T03:56:07;98822.66;;;2.84;100.00
74633;BME280;63139;52.018;8.552;2024-01-15T03:58:35;98813.19;;;2.83;100.00
74633;BME280;63139;52.018;8.552;2024-01-15T04:01:03;98818.41;;;2.83;100.00
74633;BME280;63139;52.018;8.552;2024-01-15T04:03:32;98820.88;;;2.85;100.00
74633;BME280;63139;52.018;8.552;2024-01-15T04:06:00;98815.47;;;2.86;100.00
74633;BME280;63139;52.018;8.552;2024-01-15T04:08:30;98821.69;;;2.85;100.00
74633;BME280;63139;52.018;8.552;2024-01-15T04:10:58;98823.16;;;2.88;100.00
74633;BME280;63139;52.018;8.552;2024-01-15T04:13:25;98827.56;;;2.87;100.00
74633;BME280;63139;52.018;8.552;2024-01-15T04:15:54;98817.44;;;2.92;100.00
74633;BME280;63139;52.018;8.552;2024-01-15T04:18:23;98812.22;;;2.92;100.00
74633;BME280;63139;52.018;8.552;2024-01-15T04:20:51;98796.69;;;2.91;100.00
74633;BME280;63139;52.018;8.552;2024-01-15T04:23:19;98797.88;;;2.96;100.00
74633;BME280;63139;52.018;8.552;2024-01-15T04:25:48;98792.47;;;2.98;100.00
74633;BME280;63139;52.018;8.552;2024-01-15T04:28:16;98812.06;;;2.94;100.00
74633;BME280;63139;52.018;8.552;2024-01-15T04:30:44;98796.69;;;2.91;100.00
74633;BME280;63139;52.018;8.552;2024-01-15T04:33:12;98797.69;;;2.98;100.00
74633;BME280;63139;52.018;8.552;2024-01-15T04:35:40;98795.06;;;2.98;100.00
74633;BME280;63139;52.018;8.552;2024-01-15T04:38:08;98792.78;;;2.95;100.00
74633;BME280;63139;52.018;8.552;2024-01-15T04:40:36;98793.94;;;3.00;100.00
74633;BME280;63139;52.018;8.552;2024-01-15T04:43:05;98788.41;;;3.03;100.00
74633;BME280;63139;52.018;8.552;2024-01-15T04:45:34;98779.22;;;2.99;100.00
74633;BME280;63139;52.018;8.552;2024-01-15T04:48:03;98783.63;;;2.99;100.00
74633;BME280;63139;52.018;8.552;2024-01-15T04:50:31;98789.19;;;3.04;100.00
74633;BME280;63139;52.018;8.552;2024-01-15T04:52:59;98779.56;;;2.96;100.00
74633;BME280;63139;52.018;8.552;2024-01-15T04:55:28;98785.59;;;2.97;100.00
74633;BME280;63139;52.018;8.552;2024-01-15T04:57:56;98782.66;;;3.00;100.00
74633;BME280;63139;52.018;8.552;2024-01-15T05:00:27;98771.53;;;2.98;100.00
74633;BME280;63139;52.018;8.552;2024-01-15T05:02:54;98776.47;;;3.01;100.00
74633;BME280;63139;52.018;8.552;2024-01-15T05:05:23;98776.31;;;3.02;100.00
74633;BME280;63139;52.018;8.552;2024-01-15T05:07:51;98770.25;;;3.02;100.00
74633;BME280;63139;52.018;8.552;2024-01-15T05:10:19;98773.34;;;2.97;100.00
74633;BME280;63139;52.018;8.552;2024-01-15T05:12:47;98760.44;;;3.04;100.00
74633;BME280;63139;52.018;8.552;2024-01-15T05:15:15;98759.66;;;3.03;100.00
74633;BME280;63139;52.018;8.552;2024-01-15T05:17:45;98766.81;;;3.01;100.00
74633;BME280;63139;52.018;8.552;2024-01-15T05:20:13;98763.88;;;3.04;100.00
74633;BME280;63139;52.018;8.552;2024-01-15T05:22:41;98760.63;;;3.02;100.00
74633;BME280;63139;52.018;8.552;2024-01-15T05:25:10;98772.72;;;3.03;100.00
74633;BME280;63139;52.018;8.552;2024-01-15T05:27:38;98773.34;;;2.97;100.00
74633;BME280;63139;52.018;8.552;2024-01-15T05:30:07;98765.69;;;2.96;100.00
74633;BME280;63139;52.018;8.552;2024-01-15T05:32:35;98768.28;;;3.04;100.00
74633;BME280;63139;52.018;8.552;2024-01-15T05:35:05;98774.16;;;2.98;100.00
74633;BME280;63139;52.018;8.552;2024-01-15T05:37:33;98775.50;;;3.02;100.00
74633;BME280;63139;52.018;8.552;2024-01-15T05:40:01;98772.06;;;3.01;100.00
74633;BME280;63139;52.018;8.552;2024-01-15T05:42:31;98770.09;;;3.03;100.00
74633;BME280;63139;52.018;8.552;2024-01-15T05:44:59;98771.41;;;2.99;100.00
74633;BME280;63139;52.018;8.552;2024-01-15T05:47:28;98772.72;;;3.03;100.00
74633;BME280;63139;52.018;8.552;2024-01-15T05:49:57;98761.91;;;3.06;100.00
74633;BME280;63139;52.018;8.552;2024-01-15T05:52:27;98756.69;;;3.06;100.00
74633;BME280;63139;52.018;8.552;2024-01-15T05:54:55;98752.94;;;3.01;100.00
74633;BME280;63139;52.018;8.552;2024-01-15T05:57:23;98752.44;;;2.97;100.00
74633;BME280;63139;52.018;8.552;2024-01-15T05:59:51;98760.47;;;2.96;100.00
74633;BME280;63139;52.018;8.552;2024-01-15T06:02:19;98758.47;;;2.90;100.00
74633;BME280;63139;52.018;8.552;2024-01-15T06:04:48;98754.56;;;2.86;100.00
74633;BME280;63139;52.018;8.552;2024-01-15T06:07:16;98767.94;;;2.91;100.00
74633;BME280;63139;52.018;8.552;2024-01-15T06:09:45;98773.19;;;2.91;100.00
74633;BME280;63139;52.018;8.552;2024-01-15T06:12:13;98764.06;;;2.95;100.00
74633;BME280;63139;52.018;8.552;2024-01-15T06:14:42;98761.09;;;2.98;100.00
74633;BME280;63139;52.018;8.552;2024-01-15T06:17:09;98771.88;;;2.95;100.00
74633;BME280;63139;52.018;8.552;2024-01-15T06:19:37;98758.81;;;2.95;100.00
74633;BME280;63139;52.018;8.552;2024-01-15T06:22:06;98770.09;;;2.95;100.00
74633;BME280;63139;52.018;8.552;2024-01-15T06:24:34;98762.56;;;2.92;100.00
74633;BME280;63139;52.018;8.552;2024-01-15T06:27:04;98766.97;;;3.00;100.00
74633;BME280;63139;52.018;8.552;2024-01-15T06:29:32;98773.69;;;3.02;100.00
74633;BME280;63139;52.018;8.552;2024-01-15T06:32:00;98771.91;;;3.03;100.00
74633;BME280;63139;52.018;8.552;2024-01-15T06:34:28;98772.22;;;3.08;100.00
74633;BME280;63139;52.018;8.552;2024-01-15T06:36:56;98774.84;;;3.08;100.00
74633;BME280;63139;52.018;8.552;2024-01-15T06:39:24;98772.72;;;3.03;100.00
74633;BME280;63139;52.018;8.552;2024-01-15T06:41:52;98772.22;;;3.00;100.00
74633;BME280;63139;52.018;8.552;2024-01-15T06:44:21;98774.31;;;3.04;100.00
74633;BME280;63139;52.018;8.552;2024-01-15T06:46:49;98773.50;;;3.12;100.00
74633;BME280;63139;52.018;8.552;2024-01-15T06:49:18;98769.63;;;3.16;100.00
74633;BME280;63139;52.018;8.552;2024-01-15T06:51:46;98768.94;;;3.14;100.00
74633;BME280;63139;52.018;8.552;2024-01-15T06:54:15;98768.13;;;3.13;100.00
74633;BME280;63139;52.018;8.552;2024-01-15T06:56:43;98766.50;;;3.12;100.00
74633;BME280;63139;52.018;8.552;2024-01-15T06:59:11;98768.28;;;3.04;100.00
74633;BME280;63139;52.018;8.552;2024-01-15T07:01:43;98777.28;;;3.01;100.00
74633;BME280;63139;52.018;8.552;2024-01-15T07:04:11;98785.44;;;2.98;100.00
74633;BME280;63139;52.018;8.552;2024-01-15T07:06:40;98783.97;;;2.96;100.00
74633;BME280;63139;52.018;8.552;2024-01-15T07:09:07;98781.69;;;2.93;100.00
74633;BME280;63139;52.018;8.552;2024-01-15T07:11:35;98788.38;;;2.95;100.00
74633;BME280;63139;52.018;8.552;2024-01-15T07:14:03;98775.66;;;3.00;100.00
74633;BME280;63139;52.018;8.552;2024-01-15T07:16:31;98773.19;;;2.91;100.00
74633;BME280;63139;52.018;8.552;2024-01-15T07:19:05;98779.88;;;2.93;100.00
74633;BME280;63139;52.018;8.552;2024-01-15T07:21:34;98784.94;;;2.87;100.00
74633;BME280;63139;52.018;8.552;2024-01-15T07:24:02;98785.75;;;2.87;100.00
74633;BME280;63139;52.018;8.552;2024-01-15T07:26:30;98785.41;;;2.90;100.00
74633;BME280;63139;52.018;8.552;2024-01-15T07:28:58;98783.16;;;2.87;100.00
74633;BME280;63139;52.018;8.552;2024-01-15T07:31:26;98776.44;;;2.85;100.00
74633;BME280;63139;52.018;8.552;2024-01-15T07:33:55;98779.72;;;2.87;100.00
74633;BME280;63139;52.018;8.552;2024-01-15T07:36:24;98774.81;;;2.84;100.00
74633;BME280;63139;52.018;8.552;2024-01-15T07:38:52;98778.38;;;2.83;100.00
74633;BME280;63139;52.018;8.552;2024-01-15T07:41:20;98782.34;;;2.87;100.00
74633;BME280;63139;52.018;8.552;2024-01-15T07:43:48;98786.75;;;2.86;100.00
74633;BME280;63139;52.018;8.552;2024-01-15T07:46:16;98781.81;;;2.83;100.00
74633;BME280;63139;52.018;8.552;2024-01-15T07:48:44;98788.84;;;2.83;100.00
74633;BME280;63139;52.018;8.552;2024-01-15T07:51:12;98784.28;;;2.85;100.00
74633;BME280;63139;52.018;8.552;2024-01-15T07:53:42;98799.13;;;2.84;100.00
74633;BME280;63139;52.018;8.552;2024-01-15T07:56:09;98793.44;;;2.81;100.00
74633;BME280;63139;52.018;8.552;2024-01-15T07:58:37;98798.81;;;2.87;100.00
74633;BME280;63139;52.018;8.552;2024-01-15T08:01:05;98803.09;;;2.88;100.00
74633;BME280;63139;52.018;8.552;2024-01-15T08:03:34;98802.25;;;2.88;100.00
74633;BME280;63139;52.018;8.552;2024-01-15T08:06:02;98793.94;;;2.92;100.00
74633;BME280;63139;52.018;8.552;2024-01-15T08:08:30;98792.28;;;2.91;100.00
74633;BME280;63139;52.018;8.552;2024-01-15T08:10:59;98799.47;;;2.97;100.00
74633;BME280;63139;52.018;8.552;2024-01-15T08:13:27;98793.78;;;3.02;100.00
74633;BME280;63139;52.018;8.552;2024-01-15T08:15:55;98803.41;;;3.01;100.00
74633;BME280;63139;52.018;8.552;2024-01-15T08:18:24;98806.19;;;3.00;100.00
74633;BME280;63139;52.018;8.552;2024-01-15T08:20:52;98802.09;;;2.97;100.00
74633;BME280;63139;52.018;8.552;2024-01-15T08:23:20;98795.88;;;2.98;100.00
74633;BME280;63139;52.018;8.552;2024-01-15T08:25:48;98795.56;;;3.01;100.00
74633;BME280;63139;52.018;8.552;2024-01-15T08:28:18;98798.19;;;3.09;100.00
74633;BME280;63139;52.018;8.552;2024-01-15T08:30:46;98802.63;;;3.09;100.00
74633;BME280;63139;52.018;8.552;2024-01-15T08:33:14;98802.63;;;3.09;100.00
74633;BME280;63139;52.018;8.552;2024-01-15T08:35:48;98796.22;;;3.11;100.00
74633;BME280;63139;52.018;8.552;2024-01-15T08:38:16;98796.41;;;3.18;100.00
74633;BME280;63139;52.018;8.552;2024-01-15T08:40:43;98790.19;;;3.27;100.00
74633;BME280;63139;52.018;8.552;2024-01-15T08:43:12;98792.16;;;3.25;100.00
74633;BME280;63139;52.018;8.552;2024-01-15T08:45:41;98787.09;;;3.24;100.00
74633;BME280;63139;52.018;8.552;2024-01-15T08:48:09;98793.31;;;3.23;100.00
74633;BME280;63139;52.018;8.552;2024-01-15T08:50:38;98793.81;;;3.18;100.00
74633;BME280;63139;52.018;8.552;2024-01-15T08:53:05;98803.44;;;3.26;100.00
74633;BME280;63139;52.018;8.552;2024-01-15T08:55:33;98800.81;;;3.34;100.00
74633;BME280;63139;52.018;8.552;2024-01-15T08:58:01;98794.78;;;3.33;100.00
74633;BME280;63139;52.018;8.552;2024-01-15T09:00:29;98795.09;;;3.30;100.00
74633;BME280;63139;52.018;8.552;2024-01-15T09:02:59;98798.69;;;3.29;100.00
74633;BME280;63139;52.018;8.552;2024-01-15T09:05:28;98803.75;;;3.31;100.00
74633;BME280;63139;52.018;8.552;2024-01-15T09:07:56;98798.03;;;3.35;100.00
74633;BME280;63139;52.018;8.552;2024-01-15T09:10:24;98800.34;;;3.30;100.00
74633;BME280;63139;52.018;8.552;2024-01-15T09:12:52;98795.91;;;3.31;100.00
74633;BME280;63139;52.018;8.552;2024-01-15T09:15:20;98804.22;;;3.26;100.00
74633;BME280;63139;52.018;8.552;2024-01-15T09:17:48;98804.06;;;3.28;100.00
74633;BME280;63139;52.018;8.552;2024-01-15T09:20:18;98807.66;;;3.27;100.00
74633;BME280;63139;52.018;8.552;2024-01-15T09:22:45;98810.63;;;3.24;100.00
74633;BME280;63139;52.018;8.552;2024-01-15T09:25:14;98805.41;;;3.24;100.00
74633;BME280;63139;52.018;8.552;2024-01-15T09:27:42;98805.06;;;3.27;100.00
74633;BME280;63139;52.018;8.552;2024-01-15T09:30:10;98798.38;;;3.24;100.00
74633;BME280;63139;52.018;8.552;2024-01-15T09:32:39;98793.97;;;3.17;100.00
74633;BME280;63139;52.018;8.552;2024-01-15T09:35:08;98792.78;;;3.19;100.00
74633;BME280;63139;52.018;8.552;2024-01-15T09:37:39;98799.03;;;3.10;100.00
74633;BME280;63139;52.018;8.552;2024-01-15T09:40:14;98791.63;;;2.97;100.00
74633;BME280;63139;52.018;8.552;2024-01-15T09:42:43;98799.47;;;2.97;100.00
74633;BME280;63139;52.018;8.552;2024-01-15T09:45:13;98794.59;;;2.94;100.00
74633;BME280;63139;52.018;8.552;2024-01-15T09:47:42;98811.09;;;2.95;100.00
74633;BME280;63139;52.018;8.552;2024-01-15T09:50:13;98794.28;;;3.13;100.00
74633;BME280;63139;52.018;8.552;2024-01-15T09:52:43;98796.41;;;3.18;100.00
74633;BME280;63139;52.018;8.552;2024-01-15T09:55:13;98795.44;;;3.11;100.00
74633;BME280;63139;52.018;8.552;2024-01-15T09:57:43;98801.13;;;3.15;100.00
74633;BME280;63139;52.018;8.552;2024-01-15T10:00:12;98805.25;;;3.25;100.00
74633;BME280;63139;52.018;8.552;2024-01-15T10:02:40;98802.78;;;3.32;100.00
74633;BME280;63139;52.018;8.552;2024-01-15T10:05:08;98791.97;;;3.51;100.00
74633;BME280;63139;52.018;8.552;2024-01-15T10:07:37;98801.63;;;3.50;100.00
74633;BME280;63139;52.018;8.552;2024-01-15T10:10:08;98798.34;;;3.57;100.00
74633;BME280;63139;52.018;8.552;2024-01-15T10:12:39;98798.03;;;3.68;100.00
74633;BME280;63139;52.018;8.552;2024-01-15T10:15:09;98791.44;;;3.80;100.00
74633;BME280;63139;52.018;8.552;2024-01-15T10:17:38;98790.63;;;3.79;100.00
74633;BME280;63139;52.018;8.552;2024-01-15T10:20:08;98784.41;;;3.88;100.00
74633;BME280;63139;52.018;8.552;2024-01-15T10:22:40;98790.31;;;3.82;100.00
74633;BME280;63139;52.018;8.552;2024-01-15T10:25:14;98795.88;;;3.63;100.00
74633;BME280;63139;52.018;8.552;2024-01-15T10:27:43;98787.88;;;3.65;100.00
74633;BME280;63139;52.018;8.552;2024-01-15T10:30:12;98785.09;;;3.66;100.00
74633;BME280;63139;52.018;8.552;2024-01-15T10:32:41;98778.22;;;3.65;100.00
74633;BME280;63139;52.018;8.552;2024-01-15T10:35:10;98775.44;;;3.75;100.00
74633;BME280;63139;52.018;8.552;2024-01-15T10:37:38;98776.91;;;3.77;100.00
74633;BME280;63139;52.018;8.552;2024-01-15T10:40:06;98774.59;;;3.82;100.00
74633;BME280;63139;52.018;8.552;2024-01-15T10:42:36;98775.66;;;4.12;100.00
74633;BME280;63139;52.018;8.552;2024-01-15T10:45:04;98782.53;;;4.13;100.00
74633;BME280;63139;52.018;8.552;2024-01-15T10:47:33;98773.16;;;4.27;100.00
74633;BME280;63139;52.018;8.552;2024-01-15T10:50:02;98776.41;;;4.29;100.00
74633;BME280;63139;52.018;8.552;2024-01-15T10:52:33;98766.44;;;4.55;100.00
74633;BME280;63139;52.018;8.552;2024-01-15T10:55:03;98759.25;;;4.57;100.00
74633;BME280;63139;52.018;8.552;2024-01-15T10:57:39;98762.06;;;4.48;100.00
74633;BME280;63139;52.018;8.552;2024-01-15T11:00:10;98764.31;;;4.59;100.00
74633;BME280;63139;52.018;8.552;2024-01-15T11:02:42;98754.34;;;4.77;100.00
74633;BME280;63139;52.018;8.552;2024-01-15T11:05:11;98747.44;;;4.84;100.00
74633;BME280;63139;52.018;8.552;2024-01-15T11:07:40;98745.97;;;4.59;100.00
74633;BME280;63139;52.018;8.552;2024-01-15T11:10:40;98763.50;;;4.58;100.00
74633;BME280;63139;52.018;8.552;2024-01-15T11:13:14;98761.47;;;4.68;100.00
74633;BME280;63139;52.018;8.552;2024-01-15T11:15:55;98762.34;;;4.84;100.00
74633;BME280;63139;52.018;8.552;2024-01-15T11:18:23;98749.97;;;4.69;100.00
74633;BME280;63139;52.018;8.552;2024-01-15T11:21:20;98758.72;;;4.62;100.00
74633;BME280;63139;52.018;8.552;2024-01-15T11:23:49;98747.53;;;4.68;100.00
74633;BME280;63139;52.018;8.552;2024-01-15T11:26:27;98748.94;;;4.79;100.00
74633;BME280;63139;52.018;8.552;2024-01-15T11:28:57;98759.31;;;4.72;100.00
74633;BME280;63139;52.018;8.552;2024-01-15T11:31:28;98768.75;;;4.58;100.00
74633;BME280;63139;52.018;8.552;2024-01-15T11:33:56;98766.50;;;4.47;100.00
74633;BME280;63139;52.018;8.552;2024-01-15T11:39:39;98763.09;;;4.39;100.00
74633;BME280;63139;52.018;8.552;2024-01-15T11:42:10;98755.78;;;4.26;100.00
74633;BME280;63139;52.018;8.552;2024-01-15T11:44:40;98761.25;;;4.47;100.00
74633;BME280;63139;52.018;8.552;2024-01-15T11:47:09;98751.59;;;4.48;100.00
74633;BME280;63139;52.018;8.552;2024-01-15T11:49:59;98751.22;;;4.28;100.00
74633;BME280;63139;52.018;8.552;2024-01-15T11:52:32;98745.00;;;4.29;100.00
74633;BME280;63139;52.018;8.552;2024-01-15T11:55:10;98746.09;;;4.35;100.00
74633;BME280;63139;52.018;8.552;2024-01-15T11:57:45;98753.31;;;4.33;100.00
74633;BME280;63139;52.018;8.552;2024-01-15T12:00:15;98752.16;;;4.35;100.00
74633;BME280;63139;52.018;8.552;2024-01-15T12:02:44;98748.56;;;4.36;100.00
74633;BME280;63139;52.018;8.552;2024-01-15T12:05:14;98746.59;;;4.30;100.00
74633;BME280;63139;52.018;8.552;2024-01-15T12:07:43;98742.50;;;4.36;100.00
74633;BME280;63139;52.018;8.552;2024-01-15T12:10:13;98744.06;;;4.45;100.00
74633;BME280;63139;52.018;8.552;2024-01-15T12:12:58;98752.56;;;4.47;100.00
74633;BME280;63139;52.018;8.552;2024-01-15T12:15:29;98754.53;;;4.45;100.00
74633;BME280;63139;52.018;8.552;2024-01-15T12:17:58;98743.28;;;4.44;100.00
74633;BME280;63139;52.018;8.552;2024-01-15T12:20:27;98755.25;;;4.30;100.00
74633;BME280;63139;52.018;8.552;2024-01-15T12:22:56;98747.91;;;4.34;100.00
74633;BME280;63139;52.018;8.552;2024-01-15T12:25:30;98752.69;;;4.22;100.00
74633;BME280;63139;52.018;8.552;2024-01-15T12:28:00;98748.75;;;4.26;100.00
74633;BME280;63139;52.018;8.552;2024-01-15T12:30:30;98757.28;;;4.20;100.00
74633;BME280;63139;52.018;8.552;2024-01-15T12:33:01;98754.41;;;4.38;100.00
74633;BME280;63139;52.018;8.552;2024-01-15T12:35:31;98757.34;;;4.43;100.00
74633;BME280;63139;52.018;8.552;2024-01-15T12:38:00;98753.59;;;4.38;100.00
74633;BME280;63139;52.018;8.552;2024-01-15T12:40:31;98746.59;;;4.30;100.00
74633;BME280;63139;52.018;8.552;2024-01-15T12:43:01;98745.25;;;4.42;100.00
74633;BME280;63139;52.018;8.552;2024-01-15T12:45:31;98740.25;;;4.55;100.00
74633;BME280;63139;52.018;8.552;2024-01-15T12:47:59;98756.69;;;4.41;100.00
74633;BME280;63139;52.018;8.552;2024-01-15T12:50:28;98737.88;;;4.38;100.00
74633;BME280;63139;52.018;8.552;2024-01-15T12:52:55;98750.34;;;4.36;100.00
74633;BME280;63139;52.018;8.552;2024-01-15T12:55:25;98750.75;;;4.16;100.00
74633;BME280;63139;52.018;8.552;2024-01-15T12:57:53;98746.44;;;4.32;100.00
74633;BME280;63139;52.018;8.552;2024-01-15T13:00:22;98747.81;;;4.50;100.00
74633;BME280;63139;52.018;8.552;2024-01-15T13:02:54;98753.44;;;4.39;100.00
74633;BME280;63139;52.018;8.552;2024-01-15T13:05:25;98753.56;;;4.46;100.00
74633;BME280;63139;52.018;8.552;2024-01-15T13:07:54;98750.59;;;4.49;100.00
74633;BME280;63139;52.018;8.552;2024-01-15T13:10:22;98744.84;;;4.53;100.00
74633;BME280;63139;52.018;8.552;2024-01-15T13:12:52;98739.88;;;4.66;100.00